createdAt,value
2023-03-18T00:01:56.895Z,101859.03
2023-03-18T00:06:59.956Z,101856.03
2023-03-18T00:11:58.150Z,101854.78
2023-03-18T00:16:56.397Z,101862.09
2023-03-18T00:21:56.005Z,101851.34
2023-03-18T00:26:55.890Z,101842.66
2023-03-18T00:31:58.232Z,101836.88
2023-03-18T00:37:01.780Z,101836.56
2023-03-18T00:42:11.093Z,101827.34
2023-03-18T00:47:10.165Z,101820.66
2023-03-18T00:52:08.724Z,101818.09
2023-03-18T00:57:07.446Z,101811.16
2023-03-18T01:02:06.881Z,101806.47
2023-03-18T01:07:05.637Z,101809.09
2023-03-18T01:12:03.369Z,101798.81
2023-03-18T01:17:02.378Z,101796.84
2023-03-18T01:22:10.647Z,101789.56
2023-03-18T01:27:15.844Z,101794.16
2023-03-18T01:32:18.552Z,101799.97
2023-03-18T01:37:18.157Z,101800.47
2023-03-18T01:42:22.841Z,101794.25
2023-03-18T01:47:24.300Z,101794.16
2023-03-18T01:52:27.811Z,101792.38
2023-03-18T01:57:26.514Z,101792.91
2023-03-18T02:02:24.524Z,101790.09
2023-03-18T02:07:26.393Z,101787.53
2023-03-18T02:12:34.492Z,101794.59
2023-03-18T02:17:33.481Z,101789.41
2023-03-18T02:22:35.498Z,101794.34
2023-03-18T02:27:35.621Z,101795.59
2023-03-18T02:32:39.298Z,101804.81
2023-03-18T02:37:37.785Z,101803.72
2023-03-18T02:42:43.310Z,101803.56
2023-03-18T02:47:44.166Z,101806.94
2023-03-18T02:52:44.373Z,101802.50
2023-03-18T02:57:46.074Z,101800.41
2023-03-18T03:02:46.511Z,101805.53
2023-03-18T03:07:46.819Z,101790.88
2023-03-18T03:12:47.743Z,101796.38
2023-03-18T03:17:50.757Z,101800.19
2023-03-18T03:22:53.483Z,101800.56
2023-03-18T03:27:53.783Z,101795.44
2023-03-18T03:32:54.830Z,101799.81
2023-03-18T03:37:54.174Z,101806.44
2023-03-18T03:42:56.751Z,101811.47
2023-03-18T03:47:57.333Z,101808.53
2023-03-18T03:52:56.102Z,101811.22
2023-03-18T03:57:56.593Z,101817.53
2023-03-18T04:02:56.475Z,101825.59
2023-03-18T04:08:02.288Z,101821.88
2023-03-18T04:13:08.964Z,101832.94
2023-03-18T04:18:09.054Z,101828.56
2023-03-18T04:23:09.724Z,101831.53
2023-03-18T04:28:09.045Z,101837.00
2023-03-18T04:33:13.337Z,101835.94
2023-03-18T04:38:12.258Z,101852.84
2023-03-18T04:43:10.683Z,101853.19
2023-03-18T04:48:11.326Z,101855.66
2023-03-18T04:53:14.324Z,101854.94
2023-03-18T04:58:13.339Z,101863.81
2023-03-18T05:03:18.299Z,101855.28
2023-03-18T05:08:20.604Z,101863.53
2023-03-18T05:13:20.007Z,101875.81
2023-03-18T05:18:22.792Z,101885.38
2023-03-18T05:23:24.225Z,101876.56
2023-03-18T05:28:28.602Z,101888.47
2023-03-18T05:33:44.922Z,101890.97
2023-03-18T05:38:44.542Z,101904.38
2023-03-18T05:43:54.040Z,101889.31
2023-03-18T05:48:54.855Z,101882.22
2023-03-18T05:53:58.676Z,101877.78
2023-03-18T05:59:05.019Z,101878.75
2023-03-18T06:04:22.233Z,101885.16
2023-03-18T06:09:23.474Z,101887.38
2023-03-18T06:14:23.144Z,101882.97
2023-03-18T06:19:22.269Z,101883.94
2023-03-18T06:24:22.937Z,101893.88
2023-03-18T06:29:20.924Z,101899.97
2023-03-18T06:34:22.536Z,101898.47
2023-03-18T06:39:21.799Z,101892.88
2023-03-18T06:44:22.820Z,101890.31
2023-03-18T06:49:26.745Z,101897.66
2023-03-18T06:54:35.397Z,101898.13
2023-03-18T06:59:36.839Z,101904.22
2023-03-18T07:04:36.397Z,101912.63
2023-03-18T07:09:40.040Z,101901.06
2023-03-18T07:14:53.578Z,101908.50
2023-03-18T07:19:54.731Z,101896.50
2023-03-18T07:24:52.634Z,101899.25
2023-03-18T07:29:52.732Z,101900.47
2023-03-18T07:34:50.835Z,101899.72
2023-03-18T07:39:52.995Z,101900.56
2023-03-18T07:44:51.177Z,101890.22
2023-03-18T07:49:49.088Z,101896.84
2023-03-18T07:54:46.647Z,101897.63
2023-03-18T07:59:44.904Z,101911.22
2023-03-18T08:04:44.209Z,101897.53
2023-03-18T08:09:43.615Z,101898.84
2023-03-18T08:14:43.435Z,101903.53
2023-03-18T08:19:42.299Z,101902.00
2023-03-18T08:24:45.445Z,101899.81
2023-03-18T08:29:45.105Z,101910.59
2023-03-18T08:34:43.715Z,101903.78
2023-03-18T08:39:45.123Z,101900.69
2023-03-18T08:44:43.658Z,101890.56
2023-03-18T08:49:44.719Z,101894.19
2023-03-18T08:54:43.605Z,101902.72
2023-03-18T08:59:42.075Z,101904.44
2023-03-18T09:04:44.418Z,101906.22
2023-03-18T09:09:44.390Z,101899.69
2023-03-18T09:14:44.335Z,101891.09
2023-03-18T09:19:54.069Z,101895.81
2023-03-18T09:24:53.216Z,101882.47
2023-03-18T09:29:52.321Z,101881.59
2023-03-18T09:34:50.529Z,101874.97
2023-03-18T09:39:49.373Z,101872.75
2023-03-18T09:44:50.824Z,101871.78
2023-03-18T09:50:23.225Z,101873.66
2023-03-18T09:55:25.925Z,101864.38
2023-03-18T10:00:32.693Z,101870.34
2023-03-18T10:05:36.518Z,101862.47
2023-03-18T10:10:41.615Z,101862.50
2023-03-18T10:16:01.713Z,101857.31
2023-03-18T10:21:13.736Z,101850.53
2023-03-18T10:26:26.427Z,101845.47
2023-03-18T10:31:32.218Z,101832.91
2023-03-18T10:36:51.682Z,101828.59
2023-03-18T10:41:53.581Z,101816.91
2023-03-18T10:47:13.153Z,101828.06
2023-03-18T10:52:16.353Z,101818.66
2023-03-18T10:57:16.484Z,101810.84
2023-03-18T11:02:16.655Z,101799.25
2023-03-18T11:07:21.218Z,101799.66
2023-03-18T11:12:23.699Z,101799.19
2023-03-18T11:17:40.472Z,101793.25
2023-03-18T11:22:53.553Z,101799.34
2023-03-18T11:28:30.535Z,101789.19
2023-03-18T11:33:39.080Z,101800.59
2023-03-18T11:38:54.456Z,101784.81
2023-03-18T11:44:03.854Z,101784.09
2023-03-18T11:49:09.293Z,101783.16
2023-03-18T11:54:21.636Z,101773.53
2023-03-18T11:59:42.107Z,101762.09
2023-03-18T12:04:41.233Z,101772.97
2023-03-18T12:09:45.607Z,101767.72
2023-03-18T12:14:51.690Z,101768.53
2023-03-18T12:20:17.022Z,101759.75
2023-03-18T12:25:22.768Z,101757.22
2023-03-18T12:30:21.908Z,101748.19
2023-03-18T12:35:43.298Z,101736.94
2023-03-18T12:40:44.675Z,101744.88
2023-03-18T12:45:56.946Z,101735.41
2023-03-18T12:51:12.461Z,101731.19
2023-03-18T12:56:14.616Z,101733.13
2023-03-18T13:01:25.511Z,101732.03
2023-03-18T13:07:04.130Z,101737.88
2023-03-18T13:12:15.916Z,101725.38
2023-03-18T13:17:30.897Z,101723.81
2023-03-18T13:22:32.418Z,101714.38
2023-03-18T13:27:48.679Z,101711.53
2023-03-18T13:33:03.140Z,101702.22
2023-03-18T13:38:05.830Z,101704.09
2023-03-18T13:43:07.326Z,101703.81
2023-03-18T13:48:14.722Z,101705.81
2023-03-18T13:53:21.853Z,101715.88
2023-03-18T13:58:26.046Z,101719.13
2023-03-18T14:03:33.812Z,101718.06
2023-03-18T14:08:50.819Z,101721.53
2023-03-18T14:13:54.215Z,101721.13
2023-03-18T14:19:35.530Z,101739.03
2023-03-18T14:24:40.474Z,101744.56
2023-03-18T14:29:44.333Z,101747.25
2023-03-18T14:35:14.916Z,101763.91
2023-03-18T14:40:21.565Z,101758.94
2023-03-18T14:45:33.814Z,101758.88
2023-03-18T14:50:52.330Z,101757.69
2023-03-18T14:56:06.609Z,101766.03
2023-03-18T15:01:10.151Z,101771.97
2023-03-18T15:06:09.540Z,101773.56
2023-03-18T15:17:03.421Z,101784.19
2023-03-18T15:22:15.505Z,101780.88
2023-03-18T15:27:21.525Z,101788.75
2023-03-18T15:32:29.873Z,101788.97
2023-03-18T15:37:44.782Z,101790.25
2023-03-18T15:42:44.161Z,101796.75
2023-03-18T15:47:46.389Z,101791.19
2023-03-18T15:52:48.971Z,101803.59
2023-03-18T15:57:53.641Z,101805.28
2023-03-18T16:03:12.650Z,101804.94
2023-03-18T16:08:20.533Z,101814.56
2023-03-18T16:13:29.773Z,101809.34
2023-03-18T16:18:41.936Z,101813.13
2023-03-18T16:23:43.531Z,101827.97
2023-03-18T16:28:47.176Z,101824.69
2023-03-18T16:33:53.024Z,101831.78
2023-03-18T16:38:56.417Z,101825.44
2023-03-18T16:43:57.791Z,101842.69
2023-03-18T16:49:08.244Z,101854.47
2023-03-18T16:54:25.904Z,101854.56
2023-03-18T16:59:38.026Z,101862.09
2023-03-18T17:04:39.907Z,101869.88
2023-03-18T17:09:46.261Z,101872.50
2023-03-18T17:14:55.844Z,101870.59
2023-03-18T17:19:59.903Z,101868.75
2023-03-18T17:25:05.103Z,101875.13
2023-03-18T17:30:22.446Z,101873.56
2023-03-18T17:35:29.740Z,101882.00
2023-03-18T17:40:32.044Z,101885.38
2023-03-18T17:45:33.862Z,101878.69
2023-03-18T17:50:39.279Z,101881.28
2023-03-18T17:56:02.509Z,101882.44
2023-03-18T18:01:16.644Z,101891.78
2023-03-18T18:06:19.108Z,101898.88
2023-03-18T18:11:35.064Z,101891.88
2023-03-18T18:16:37.709Z,101896.63
2023-03-18T18:21:40.028Z,101900.91
2023-03-18T18:26:49.783Z,101911.88
2023-03-18T18:32:17.000Z,101916.94
2023-03-18T18:37:31.661Z,101918.53
2023-03-18T18:43:02.118Z,101923.25
2023-03-18T18:48:30.125Z,101922.13
2023-03-18T18:54:10.530Z,101930.41
2023-03-18T18:59:24.680Z,101936.09
2023-03-18T19:04:46.279Z,101933.50
2023-03-18T19:09:49.857Z,101935.41
2023-03-18T19:15:08.912Z,101934.31
2023-03-18T19:20:11.934Z,101941.31
2023-03-18T19:25:14.088Z,101940.59
2023-03-18T19:30:28.109Z,101944.28
2023-03-18T19:35:32.370Z,101951.78
2023-03-18T19:40:41.275Z,101949.91
2023-03-18T19:45:50.658Z,101960.81
2023-03-18T19:50:57.947Z,101958.81
2023-03-18T19:56:06.285Z,101962.53
2023-03-18T20:01:24.768Z,101955.75
2023-03-18T20:06:31.335Z,101952.56
2023-03-18T20:11:35.467Z,101951.25
2023-03-18T20:16:52.691Z,101939.06
2023-03-18T20:21:59.684Z,101943.50
2023-03-18T20:27:13.439Z,101946.34
2023-03-18T20:32:35.621Z,101946.56
2023-03-18T20:37:34.914Z,101937.94
2023-03-18T20:42:44.789Z,101947.13
2023-03-18T20:48:06.428Z,101936.13
2023-03-18T20:53:32.827Z,101925.25
2023-03-18T20:59:18.105Z,101924.06
2023-03-18T21:04:58.951Z,101922.34
2023-03-18T21:10:00.263Z,101923.50
2023-03-18T21:15:01.657Z,101920.06
2023-03-18T21:20:22.208Z,101925.13
2023-03-18T21:25:25.447Z,101916.41
2023-03-18T21:30:24.082Z,101930.00
2023-03-18T21:35:32.060Z,101922.56
2023-03-18T21:40:33.226Z,101923.59
2023-03-18T21:45:42.165Z,101909.97
2023-03-18T21:50:46.018Z,101914.00
2023-03-18T21:55:52.314Z,101908.59
2023-03-18T22:00:52.539Z,101915.09
2023-03-18T22:05:58.685Z,101903.75
2023-03-18T22:16:35.578Z,101907.75
2023-03-18T22:21:40.394Z,101908.97
2023-03-18T22:26:43.892Z,101906.19
2023-03-18T22:31:48.163Z,101906.81
2023-03-18T22:36:54.222Z,101910.84
2023-03-18T22:42:04.756Z,101912.84
2023-03-18T22:47:14.660Z,101911.19
2023-03-18T22:52:35.552Z,101907.19
2023-03-18T22:57:39.581Z,101909.66
2023-03-18T23:02:56.800Z,101919.22
2023-03-18T23:08:03.537Z,101914.59
2023-03-18T23:13:06.343Z,101915.78
2023-03-18T23:18:03.777Z,101921.94
2023-03-18T23:23:15.203Z,101918.97
2023-03-18T23:28:21.870Z,101916.16
2023-03-18T23:33:24.782Z,101916.28
2023-03-18T23:38:29.654Z,101914.50
2023-03-18T23:43:33.650Z,101912.97
2023-03-18T23:48:40.351Z,101907.03
2023-03-18T23:53:45.145Z,101901.13
2023-03-18T23:58:45.288Z,101908.22
